createdAt,value
2018-08-20T00:00:26.152Z,9.40
2018-08-20T00:02:56.959Z,9.37
2018-08-20T00:05:27.840Z,10.23
2018-08-20T00:07:59.077Z,10.17
2018-08-20T00:10:30.069Z,9.77
2018-08-20T00:13:00.832Z,10.43
2018-08-20T00:15:31.616Z,10.20
2018-08-20T00:18:02.453Z,9.83
2018-08-20T00:20:33.368Z,10.00
2018-08-20T00:23:04.112Z,10.30
2018-08-20T00:25:34.889Z,9.37
2018-08-20T00:28:05.697Z,10.63
2018-08-20T00:30:36.534Z,10.20
2018-08-20T00:33:07.369Z,10.33
2018-08-20T00:35:38.101Z,10.43
2018-08-20T00:38:08.889Z,9.57
2018-08-20T00:40:39.614Z,10.40
2018-08-20T00:43:10.427Z,10.17
2018-08-20T00:45:41.505Z,10.37
2018-08-20T00:48:12.388Z,11.33
2018-08-20T00:50:43.250Z,10.70
2018-08-20T00:53:13.973Z,10.47
2018-08-20T00:55:44.658Z,11.40
2018-08-20T00:58:15.452Z,10.70
2018-08-20T01:00:46.230Z,10.73
2018-08-20T01:03:17.001Z,9.67
2018-08-20T01:05:47.762Z,10.33
2018-08-20T01:08:18.559Z,10.27
2018-08-20T01:10:49.382Z,10.43
2018-08-20T01:13:20.101Z,10.10
2018-08-20T01:15:50.829Z,10.30
2018-08-20T01:18:21.576Z,9.70
2018-08-20T01:20:52.269Z,8.77
2018-08-20T01:23:22.928Z,9.37
2018-08-20T01:25:53.688Z,9.53
2018-08-20T01:28:24.511Z,9.00
2018-08-20T01:30:55.183Z,9.50
2018-08-20T01:33:25.956Z,8.57
2018-08-20T01:35:56.626Z,9.20
2018-08-20T01:38:27.411Z,9.27
2018-08-20T01:40:58.103Z,9.40
2018-08-20T01:43:28.851Z,9.03
2018-08-20T01:45:59.503Z,8.87
2018-08-20T01:48:30.189Z,9.53
2018-08-20T01:51:00.900Z,9.30
2018-08-20T01:53:31.856Z,9.30
2018-08-20T01:56:02.676Z,8.10
2018-08-20T01:58:33.378Z,9.80
2018-08-20T02:01:04.204Z,9.20
2018-08-20T02:03:34.928Z,9.20
2018-08-20T02:06:05.861Z,9.00
2018-08-20T02:08:36.727Z,8.77
2018-08-20T02:11:07.622Z,8.50
2018-08-20T02:13:38.379Z,8.47
2018-08-20T02:16:10.000Z,8.20
2018-08-20T02:18:40.805Z,8.03
2018-08-20T02:21:11.609Z,8.33
2018-08-20T02:23:42.425Z,8.60
2018-08-20T02:26:13.189Z,7.90
2018-08-20T02:28:44.081Z,8.30
2018-08-20T02:31:14.849Z,8.00
2018-08-20T02:33:45.694Z,8.10
2018-08-20T02:36:16.467Z,8.53
2018-08-20T02:38:47.300Z,8.90
2018-08-20T02:41:18.162Z,8.20
2018-08-20T02:43:49.150Z,8.23
2018-08-20T02:46:35.913Z,8.33
2018-08-20T02:49:06.903Z,8.33
2018-08-20T02:51:37.661Z,9.20
2018-08-20T02:54:08.832Z,9.23
2018-08-20T02:56:39.667Z,9.97
2018-08-20T02:59:10.440Z,9.87
2018-08-20T03:01:41.248Z,11.23
2018-08-20T03:04:11.937Z,10.60
2018-08-20T03:06:42.712Z,10.57
2018-08-20T03:09:14.683Z,9.93
2018-08-20T03:11:45.436Z,9.73
2018-08-20T03:14:16.182Z,10.37
2018-08-20T03:16:47.016Z,10.07
2018-08-20T03:19:17.902Z,9.80
2018-08-20T03:21:48.715Z,8.87
2018-08-20T03:24:19.512Z,10.30
2018-08-20T03:26:50.303Z,10.20
2018-08-20T03:29:21.110Z,10.17
2018-08-20T03:31:51.838Z,9.67
2018-08-20T03:34:22.572Z,10.53
2018-08-20T03:36:53.348Z,10.33
2018-08-20T03:39:24.194Z,10.00
2018-08-20T03:41:54.913Z,10.00
2018-08-20T03:44:25.683Z,11.17
2018-08-20T03:46:56.549Z,10.13
2018-08-20T03:49:27.334Z,10.90
2018-08-20T03:51:58.137Z,10.77
2018-08-20T03:54:28.876Z,12.10
2018-08-20T03:56:59.632Z,13.43
2018-08-20T03:59:37.985Z,12.07
2018-08-20T04:02:09.197Z,12.57
2018-08-20T04:04:39.942Z,12.70
2018-08-20T04:07:10.720Z,12.90
2018-08-20T04:09:41.487Z,11.97
2018-08-20T04:12:12.183Z,12.37
2018-08-20T04:14:42.956Z,12.33
2018-08-20T04:17:13.691Z,12.67
2018-08-20T04:19:44.414Z,12.00
2018-08-20T04:22:15.225Z,13.53
2018-08-20T04:24:45.923Z,13.60
2018-08-20T04:27:16.772Z,13.03
2018-08-20T04:29:47.554Z,12.60
2018-08-20T04:32:18.442Z,13.27
2018-08-20T04:34:49.229Z,13.80
2018-08-20T04:37:20.016Z,13.00
2018-08-20T04:39:50.892Z,13.47
2018-08-20T04:42:21.782Z,13.70
2018-08-20T04:44:52.575Z,12.83
2018-08-20T04:47:23.428Z,13.03
2018-08-20T04:49:54.298Z,15.33
2018-08-20T04:52:25.039Z,15.10
2018-08-20T04:54:55.764Z,14.30
2018-08-20T04:57:26.545Z,14.73
2018-08-20T04:59:57.348Z,15.10
2018-08-20T05:02:28.163Z,15.70
2018-08-20T05:04:58.848Z,15.40
2018-08-20T05:07:29.489Z,14.80
2018-08-20T05:10:00.647Z,15.17
2018-08-20T05:12:31.317Z,15.57
2018-08-20T05:15:02.071Z,14.67
2018-08-20T05:17:32.695Z,15.53
2018-08-20T05:20:03.413Z,16.23
2018-08-20T05:22:34.079Z,15.30
2018-08-20T05:25:05.397Z,16.00
2018-08-20T05:27:36.129Z,16.97
2018-08-20T05:30:08.669Z,16.40
2018-08-20T05:32:39.434Z,15.77
2018-08-20T05:35:10.234Z,16.20
2018-08-20T05:37:40.904Z,17.63
2018-08-20T05:40:11.631Z,18.10
2018-08-20T05:42:42.335Z,16.77
2018-08-20T05:45:13.135Z,17.73
2018-08-20T05:47:43.803Z,17.30
2018-08-20T05:50:14.539Z,18.57
2018-08-20T05:52:45.203Z,18.20
2018-08-20T05:55:16.003Z,18.43
2018-08-20T05:57:46.711Z,18.60
2018-08-20T06:00:18.662Z,18.53
2018-08-20T06:02:49.359Z,19.23
2018-08-20T06:07:57.032Z,19.00
2018-08-20T06:10:27.728Z,19.47
2018-08-20T06:12:58.444Z,17.77
2018-08-20T06:15:29.140Z,18.13
2018-08-20T06:17:59.987Z,17.93
2018-08-20T06:20:30.672Z,18.23
2018-08-20T06:23:01.352Z,17.70
2018-08-20T06:25:32.043Z,17.73
2018-08-20T06:28:02.820Z,17.33
2018-08-20T06:30:33.528Z,18.23
2018-08-20T06:33:04.301Z,18.43
2018-08-20T06:35:34.976Z,18.23
2018-08-20T06:38:05.804Z,18.90
2018-08-20T06:40:36.609Z,18.50
2018-08-20T06:43:07.485Z,18.13
2018-08-20T06:45:38.180Z,18.33
2018-08-20T06:48:39.875Z,17.37
2018-08-20T06:51:10.596Z,18.80
2018-08-20T06:53:42.189Z,17.33
2018-08-20T06:56:12.896Z,17.47
2018-08-20T06:58:43.686Z,18.07
2018-08-20T07:01:14.392Z,19.37
2018-08-20T07:03:45.080Z,17.33
2018-08-20T07:06:15.837Z,16.63
2018-08-20T07:08:46.557Z,16.80
2018-08-20T07:11:17.275Z,17.00
2018-08-20T07:13:48.031Z,16.87
2018-08-20T07:16:18.720Z,15.73
2018-08-20T07:18:49.429Z,16.07
2018-08-20T07:21:20.102Z,15.57
2018-08-20T07:23:50.857Z,15.10
2018-08-20T07:26:21.507Z,14.90
2018-08-20T07:28:52.189Z,14.63
2018-08-20T07:31:22.923Z,15.33
2018-08-20T07:33:53.711Z,14.93
2018-08-20T07:36:24.340Z,13.90
2018-08-20T07:38:55.094Z,13.07
2018-08-20T07:41:26.017Z,13.60
2018-08-20T07:43:56.732Z,13.77
2018-08-20T07:46:27.424Z,13.57
2018-08-20T07:49:00.417Z,12.80
2018-08-20T07:51:31.145Z,12.93
2018-08-20T07:54:01.881Z,12.93
2018-08-20T07:56:32.574Z,13.80
2018-08-20T07:59:03.251Z,13.20
2018-08-20T08:01:33.930Z,13.50
2018-08-20T08:04:04.711Z,14.73
2018-08-20T08:06:35.439Z,14.60
2018-08-20T08:09:08.378Z,16.20
2018-08-20T08:11:39.091Z,15.17
2018-08-20T08:14:09.998Z,16.83
2018-08-20T08:16:40.676Z,17.87
2018-08-20T08:19:11.463Z,18.30
2018-08-20T08:21:42.207Z,19.60
2018-08-20T08:24:13.038Z,17.50
2018-08-20T08:26:43.793Z,19.07
2018-08-20T08:29:14.507Z,20.53
2018-08-20T08:31:45.201Z,21.40
2018-08-20T08:34:15.961Z,21.97
2018-08-20T08:36:46.659Z,22.67
2018-08-20T08:39:17.356Z,24.00
2018-08-20T08:41:48.122Z,22.63
2018-08-20T08:44:18.851Z,24.03
2018-08-20T08:46:50.303Z,23.40
2018-08-20T08:49:21.014Z,23.77
2018-08-20T08:51:51.891Z,23.17
2018-08-20T08:54:22.683Z,24.07
2018-08-20T08:56:53.394Z,24.10
2018-08-20T08:59:24.127Z,23.37
2018-08-20T09:01:55.788Z,25.37
2018-08-20T09:04:26.532Z,24.27
2018-08-20T09:06:57.295Z,25.77
2018-08-20T09:09:28.033Z,25.63
2018-08-20T09:11:58.705Z,23.80
2018-08-20T09:14:29.510Z,26.47
2018-08-20T09:17:00.244Z,24.83
2018-08-20T09:19:30.987Z,24.73
2018-08-20T09:22:01.715Z,24.70
2018-08-20T09:24:32.439Z,25.97
2018-08-20T09:27:03.119Z,26.83
2018-08-20T09:29:33.808Z,27.47
2018-08-20T09:32:04.552Z,27.17
2018-08-20T09:34:35.175Z,26.93
2018-08-20T09:37:05.900Z,25.67
2018-08-20T09:39:36.644Z,27.37
2018-08-20T09:42:07.532Z,26.97
2018-08-20T09:44:38.294Z,25.70
2018-08-20T09:47:09.048Z,27.00
2018-08-20T09:49:39.726Z,27.40
2018-08-20T09:52:10.526Z,26.67
2018-08-20T09:54:41.208Z,28.03
2018-08-20T09:57:11.949Z,29.50
2018-08-20T09:59:42.607Z,28.73
2018-08-20T10:02:13.271Z,30.50
2018-08-20T10:04:43.939Z,29.73
2018-08-20T10:07:14.597Z,29.53
2018-08-20T10:09:45.336Z,28.27
2018-08-20T10:12:16.025Z,29.80
2018-08-20T10:14:46.730Z,30.83
2018-08-20T10:17:17.461Z,30.93
2018-08-20T10:19:48.149Z,32.27
2018-08-20T10:22:18.883Z,30.67
2018-08-20T10:24:49.552Z,29.93
2018-08-20T10:27:20.356Z,28.23
2018-08-20T10:29:50.980Z,30.80
2018-08-20T10:32:21.703Z,30.30
2018-08-20T10:34:52.419Z,31.40
2018-08-20T10:37:23.117Z,32.33
2018-08-20T10:39:53.826Z,31.07
2018-08-20T10:42:24.513Z,31.63
2018-08-20T10:44:59.308Z,31.87
2018-08-20T10:47:30.016Z,31.20
2018-08-20T10:50:01.004Z,29.07
2018-08-20T10:52:31.729Z,28.10
2018-08-20T10:55:02.493Z,27.47
2018-08-20T10:57:33.225Z,26.43
2018-08-20T11:00:03.965Z,24.27
2018-08-20T11:02:35.047Z,25.53
2018-08-20T11:05:06.653Z,24.20
2018-08-20T11:07:37.457Z,25.43
2018-08-20T11:10:08.310Z,25.00
2018-08-20T11:12:39.041Z,23.93
2018-08-20T11:15:11.364Z,23.87
2018-08-20T11:17:42.117Z,23.37
2018-08-20T11:20:15.121Z,23.00
2018-08-20T11:22:46.036Z,24.73
2018-08-20T11:25:16.759Z,23.70
2018-08-20T11:27:47.492Z,22.93
2018-08-20T11:30:18.267Z,22.63
2018-08-20T11:32:48.898Z,22.17
2018-08-20T11:35:19.594Z,23.30
2018-08-20T11:37:50.247Z,22.30
2018-08-20T11:40:20.942Z,20.87
2018-08-20T11:42:51.622Z,20.60
2018-08-20T11:45:22.380Z,21.03
2018-08-20T11:47:53.062Z,21.90
2018-08-20T11:50:23.780Z,19.93
2018-08-20T11:52:54.429Z,19.23
2018-08-20T11:55:25.185Z,22.30
2018-08-20T11:57:55.854Z,21.40
2018-08-20T12:00:26.607Z,20.73
2018-08-20T12:02:57.322Z,20.80
2018-08-20T12:05:28.001Z,21.33
2018-08-20T12:07:58.747Z,22.60
2018-08-20T12:10:29.422Z,22.73
2018-08-20T12:13:00.085Z,21.00
2018-08-20T12:15:30.779Z,20.63
2018-08-20T12:18:01.446Z,20.13
2018-08-20T12:20:32.122Z,20.17
2018-08-20T12:23:02.798Z,18.80
2018-08-20T12:25:33.431Z,17.33
2018-08-20T12:28:04.102Z,18.17
2018-08-20T12:30:34.813Z,16.77
2018-08-20T12:33:05.489Z,17.73
2018-08-20T12:35:36.103Z,15.50
2018-08-20T12:38:06.732Z,14.63
2018-08-20T12:40:37.338Z,14.70
2018-08-20T12:43:08.200Z,14.97
2018-08-20T12:45:38.850Z,14.47
2018-08-20T12:48:10.311Z,15.27
2018-08-20T12:50:40.983Z,12.57
2018-08-20T12:53:11.667Z,12.23
2018-08-20T12:55:42.344Z,11.23
2018-08-20T12:58:13.130Z,9.90
2018-08-20T13:00:43.827Z,9.57
2018-08-20T13:03:14.505Z,9.00
2018-08-20T13:05:45.224Z,10.63
2018-08-20T13:08:15.922Z,10.40
2018-08-20T13:10:46.672Z,9.47
2018-08-20T13:13:17.369Z,10.10
2018-08-20T13:15:48.155Z,9.70
2018-08-20T13:18:18.785Z,10.10
2018-08-20T13:20:49.521Z,8.77
2018-08-20T13:23:20.240Z,9.13
2018-08-20T13:25:50.888Z,9.87
2018-08-20T13:28:21.586Z,10.33
2018-08-20T13:30:52.520Z,10.93
2018-08-20T13:33:23.304Z,12.03
2018-08-20T13:35:54.047Z,11.27
2018-08-20T13:38:24.819Z,14.57
2018-08-20T13:40:55.510Z,14.37
2018-08-20T13:43:26.296Z,15.10
2018-08-20T13:45:57.023Z,14.80
2018-08-20T13:48:27.740Z,14.33
2018-08-20T13:50:58.431Z,15.50
2018-08-20T13:53:29.245Z,15.60
2018-08-20T13:56:00.224Z,15.87
2018-08-20T13:58:30.975Z,15.03
2018-08-20T14:01:01.916Z,16.60
2018-08-20T14:03:32.765Z,15.63
2018-08-20T14:06:03.466Z,15.50
2018-08-20T14:08:34.199Z,16.10
2018-08-20T14:11:04.908Z,13.70
2018-08-20T14:13:35.617Z,15.03
2018-08-20T14:16:06.453Z,14.17
2018-08-20T14:18:37.210Z,15.40
2018-08-20T14:21:15.098Z,16.17
2018-08-20T14:23:48.468Z,15.10
2018-08-20T14:26:19.214Z,13.97
2018-08-20T14:28:49.893Z,12.87
2018-08-20T14:31:20.674Z,13.60
2018-08-20T14:33:51.402Z,13.30
2018-08-20T14:36:22.165Z,11.20
2018-08-20T14:38:52.907Z,12.93
2018-08-20T14:41:23.663Z,12.13
2018-08-20T14:43:54.375Z,14.27
2018-08-20T14:46:25.079Z,14.43
2018-08-20T14:48:55.800Z,13.30
2018-08-20T14:51:26.543Z,15.40
2018-08-20T14:53:57.846Z,13.73
2018-08-20T14:56:29.468Z,13.57
2018-08-20T14:59:00.219Z,12.23
2018-08-20T15:01:31.030Z,12.67
2018-08-20T15:04:01.703Z,11.63
2018-08-20T15:06:32.558Z,10.77
2018-08-20T15:09:03.408Z,10.97
2018-08-20T15:11:34.109Z,11.10
2018-08-20T15:14:05.065Z,11.33
2018-08-20T15:16:35.761Z,10.00
2018-08-20T15:19:06.457Z,10.30
2018-08-20T15:21:37.123Z,9.43
2018-08-20T15:24:14.712Z,9.30
2018-08-20T15:26:45.531Z,9.20
2018-08-20T15:29:16.665Z,8.90
2018-08-20T15:31:47.509Z,7.47
2018-08-20T15:34:18.255Z,7.00
2018-08-20T15:36:48.958Z,5.83
2018-08-20T15:39:19.667Z,6.03
2018-08-20T15:41:50.367Z,6.50
2018-08-20T15:44:21.003Z,5.97
2018-08-20T15:46:51.711Z,5.30
2018-08-20T15:49:22.417Z,4.90
2018-08-20T15:51:53.036Z,4.73
2018-08-20T15:54:23.734Z,4.53
2018-08-20T15:56:54.468Z,4.23
2018-08-20T15:59:25.093Z,3.77
2018-08-20T16:01:55.859Z,4.33
2018-08-20T16:04:26.503Z,4.13
2018-08-20T16:06:57.259Z,3.67
2018-08-20T16:09:27.983Z,4.20
2018-08-20T16:11:58.886Z,4.00
2018-08-20T16:14:29.531Z,3.63
2018-08-20T16:17:00.243Z,3.27
2018-08-20T16:19:30.882Z,3.00
2018-08-20T16:22:01.544Z,2.77
2018-08-20T16:24:32.183Z,3.10
2018-08-20T16:27:03.003Z,2.37
2018-08-20T16:29:33.696Z,2.90
2018-08-20T16:32:04.460Z,2.27
2018-08-20T16:34:35.547Z,2.20
2018-08-20T16:37:07.413Z,2.10
2018-08-20T16:39:38.597Z,2.20
2018-08-20T16:42:09.645Z,2.40
2018-08-20T16:44:40.515Z,2.13
2018-08-20T16:47:11.153Z,2.50
2018-08-20T16:49:42.031Z,2.07
2018-08-20T16:52:12.735Z,1.93
2018-08-20T16:54:43.448Z,2.00
2018-08-20T16:57:14.116Z,2.00
2018-08-20T16:59:44.877Z,2.23
2018-08-20T17:02:20.764Z,1.70
2018-08-20T17:04:51.503Z,1.87
2018-08-20T17:07:22.161Z,2.00
2018-08-20T17:09:52.866Z,1.90
2018-08-20T17:12:23.527Z,2.00
2018-08-20T17:14:54.250Z,1.80
2018-08-20T17:17:24.966Z,2.07
2018-08-20T17:19:55.655Z,1.90
2018-08-20T17:22:26.398Z,1.80
2018-08-20T17:24:57.653Z,1.90
2018-08-20T17:27:28.320Z,1.80
2018-08-20T17:29:59.058Z,1.80
2018-08-20T17:32:31.387Z,1.90
2018-08-20T17:35:02.427Z,2.00
2018-08-20T17:37:33.713Z,1.83
2018-08-20T17:40:07.905Z,1.67
2018-08-20T17:42:38.779Z,1.90
2018-08-20T17:45:10.657Z,1.57
2018-08-20T17:47:41.699Z,1.87
2018-08-20T17:50:30.322Z,1.90
2018-08-20T17:53:01.198Z,1.70
2018-08-20T17:55:31.963Z,1.73
2018-08-20T17:58:02.725Z,2.17
2018-08-20T18:00:46.978Z,1.73
2018-08-20T18:03:24.066Z,1.40
2018-08-20T18:06:00.531Z,1.47
2018-08-20T18:08:32.341Z,1.53
2018-08-20T18:11:03.467Z,1.47
2018-08-20T18:13:49.305Z,1.20
2018-08-20T18:16:21.243Z,1.30
2018-08-20T18:18:53.027Z,1.17
2018-08-20T18:21:23.765Z,3.50
2018-08-20T18:23:54.594Z,4.47
2018-08-20T18:26:30.532Z,1.73
2018-08-20T18:29:01.265Z,1.30
2018-08-20T18:31:32.016Z,1.40
2018-08-20T18:34:02.814Z,1.10
2018-08-20T18:36:33.697Z,1.23
2018-08-20T18:39:10.111Z,10.43
2018-08-20T18:42:13.541Z,7.80
2018-08-20T18:44:44.830Z,3.40
2018-08-20T18:47:16.972Z,2.87
2018-08-20T18:49:53.694Z,2.07
2018-08-20T18:52:26.558Z,1.33
2018-08-20T18:54:58.796Z,1.53
2018-08-20T18:57:32.166Z,1.70
2018-08-20T19:00:05.651Z,1.60
2018-08-20T19:02:50.162Z,1.60
2018-08-20T19:05:21.452Z,1.43
2018-08-20T19:07:52.268Z,1.47
2018-08-20T19:10:26.751Z,1.30
2018-08-20T19:12:57.609Z,1.53
2018-08-20T19:15:40.987Z,1.60
2018-08-20T19:18:14.460Z,1.60
2018-08-20T19:20:45.354Z,1.67
2018-08-20T19:23:16.136Z,1.40
2018-08-20T19:25:47.062Z,1.37
2018-08-20T19:28:23.703Z,1.57
2018-08-20T19:30:55.893Z,1.60
2018-08-20T19:33:28.400Z,1.50
2018-08-20T19:35:59.309Z,1.73
2018-08-20T19:38:30.032Z,1.40
2018-08-20T19:41:09.039Z,1.60
2018-08-20T19:43:43.973Z,1.43
2018-08-20T19:46:19.024Z,1.60
2018-08-20T19:48:50.816Z,1.67
2018-08-20T19:51:21.619Z,1.70
2018-08-20T19:53:52.374Z,1.40
2018-08-20T19:56:23.222Z,1.70
2018-08-20T19:58:53.951Z,2.50
2018-08-20T20:01:25.867Z,1.80
2018-08-20T20:03:56.738Z,1.83
2018-08-20T20:06:27.484Z,1.70
2018-08-20T20:08:58.382Z,1.80
2018-08-20T20:11:30.507Z,1.60
2018-08-20T20:14:03.241Z,1.80
2018-08-20T20:16:41.033Z,1.60
2018-08-20T20:19:12.228Z,1.90
2018-08-20T20:21:43.076Z,1.63
2018-08-20T20:24:14.108Z,1.73
2018-08-20T20:26:44.853Z,1.53
2018-08-20T20:29:15.800Z,1.73
2018-08-20T20:31:46.392Z,1.70
2018-08-20T20:34:17.133Z,1.87
2018-08-20T20:36:47.946Z,1.67
2018-08-20T20:39:18.699Z,1.90
2018-08-20T20:41:49.500Z,1.63
2018-08-20T20:44:20.192Z,2.00
2018-08-20T20:46:50.930Z,1.80
2018-08-20T20:49:52.356Z,1.90
2018-08-20T20:52:23.131Z,2.90
2018-08-20T20:54:53.866Z,1.90
2018-08-20T20:57:24.566Z,2.00
2018-08-20T20:59:55.371Z,2.10
2018-08-20T21:02:26.024Z,1.90
2018-08-20T21:05:00.887Z,1.90
2018-08-20T21:07:33.582Z,1.80
2018-08-20T21:10:04.802Z,1.90
2018-08-20T21:12:35.486Z,1.90
2018-08-20T21:15:08.460Z,2.00
2018-08-20T21:17:39.242Z,1.80
2018-08-20T21:20:09.941Z,1.90
2018-08-20T21:22:40.878Z,1.90
2018-08-20T21:25:11.851Z,1.80
2018-08-20T21:27:42.659Z,1.93
2018-08-20T21:30:13.326Z,1.83
2018-08-20T21:32:44.109Z,2.00
2018-08-20T21:35:14.841Z,1.97
2018-08-20T21:37:45.562Z,1.90
2018-08-20T21:40:20.319Z,1.70
2018-08-20T21:42:50.960Z,1.73
2018-08-20T21:45:21.605Z,2.10
2018-08-20T21:47:52.340Z,1.97
2018-08-20T21:50:23.046Z,1.80
2018-08-20T21:52:53.778Z,1.90
2018-08-20T21:55:24.453Z,1.50
2018-08-20T21:57:58.346Z,1.50
2018-08-20T22:00:30.588Z,1.63
2018-08-20T22:03:01.869Z,1.70
2018-08-20T22:05:32.668Z,1.83
2018-08-20T22:08:03.409Z,1.87
2018-08-20T22:10:34.117Z,1.70
2018-08-20T22:13:04.838Z,1.57
2018-08-20T22:15:35.602Z,1.67
2018-08-20T22:18:06.477Z,1.57
2018-08-20T22:20:37.163Z,1.60
2018-08-20T22:23:24.948Z,1.47
2018-08-20T22:25:39.588Z,1.40
2018-08-20T22:28:10.633Z,1.70
2018-08-20T22:30:45.466Z,1.40
2018-08-20T22:33:16.118Z,1.50
2018-08-20T22:35:46.793Z,1.50
2018-08-20T22:38:17.560Z,1.47
2018-08-20T22:40:49.843Z,1.60
2018-08-20T22:43:20.556Z,1.50
2018-08-20T22:45:51.302Z,1.50
2018-08-20T22:48:21.984Z,1.53
2018-08-20T22:51:11.539Z,1.60
2018-08-20T22:53:47.306Z,1.60
2018-08-20T22:56:21.012Z,2.30
2018-08-20T22:58:52.127Z,5.00
2018-08-20T23:01:22.827Z,2.60
2018-08-20T23:03:53.590Z,1.97
2018-08-20T23:06:24.560Z,1.53
2018-08-20T23:08:55.330Z,1.77
2018-08-20T23:11:40.810Z,1.80
2018-08-20T23:14:12.738Z,1.40
2018-08-20T23:16:43.406Z,1.60
2018-08-20T23:19:14.218Z,1.87
2018-08-20T23:21:45.995Z,1.30
2018-08-20T23:24:17.433Z,1.60
2018-08-20T23:26:48.129Z,1.63
2018-08-20T23:29:18.859Z,1.80
2018-08-20T23:31:49.583Z,1.83
2018-08-20T23:34:20.236Z,1.50
2018-08-20T23:36:50.977Z,1.70
2018-08-20T23:39:21.755Z,1.57
2018-08-20T23:41:52.464Z,1.70
2018-08-20T23:44:23.208Z,2.13
2018-08-20T23:46:53.917Z,2.20
2018-08-20T23:49:24.545Z,1.63
2018-08-20T23:51:55.328Z,1.80
2018-08-20T23:54:26.130Z,1.70
2018-08-20T23:56:56.821Z,1.90
2018-08-20T23:59:27.496Z,1.60
